Station: Lismore Airport  

  Atmospheric Gas Attenuation - ITU Rec 676-11   ----------------- dB/100km -----------------
Date Time Temp RH % AH g/m3 Dew Point Wind Direction Speed kph Gust kph Barometer mB Rainfall Since 9am 24GHz 47GHz 76GHz 122GHz 134GHz 241GHz
08/05 12:30 19.1 28 4.59 0.2 13 19 1018.3 0 10.9 19.0 23.6 61.0 46.4 156.7
08/05 12:20 19.3 36 5.97 3.9 15 19 1018.5 0 13.8 20.8 28.0 73.0 61.3 209.0
08/05 12:10 19.1 36 5.9 3.7 17 19 1018.7 0 13.7 20.7 27.9 72.6 60.7 206.8
08/05 12:00 18.3 26 4.06 -1.5 11 19 1018.9 0 9.8 18.4 22.1 57.1 41.3 138.6
08/05 11:50 18.4 29 4.56 0.1 7 9 1019.1 0 10.9 19.1 23.7 61.3 46.6 157.0
08/05 11:40 17.8 24 3.64 -3 15 19 1019.3 0 9.0 18.0 20.9 54.0 37.2 124.1
08/05 11:30 17.6 26 3.9 -2.1 9 15 1019.6 0 9.5 18.4 21.8 56.3 40.0 133.9
08/05 11:20 17.8 28 4.25 -0.9 13 15 1019.7 0 10.2 18.8 22.9 59.2 43.6 146.6
08/05 11:10 17.4 28 4.15 -1.3 13 15 1020 0 10.1 18.8 22.7 58.6 42.8 143.6
08/05 11:00 17.4 29 4.3 -0.8 7 11 1020.1 0 10.4 19.0 23.2 59.9 44.4 149.2
08/05 10:50 17.3 32 4.71 0.5 9 9 1020.3 0 11.2 19.5 24.5 63.6 48.9 165.0
08/05 10:40 17.1 30 4.37 -0.6 15 17 1020.4 0 10.5 19.1 23.5 60.8 45.3 152.5
08/05 10:30 16.7 28 3.98 -1.9 11 17 1020.6 0 9.7 18.7 22.3 57.7 41.4 138.5
08/05 10:20 17 32 4.63 0.2 15 15 1020.8 0 11.1 19.5 24.4 63.1 48.2 162.6
08/05 10:10 16.5 31 4.35 -0.7 9 13 1020.8 0 10.5 19.2 23.6 61.0 45.4 152.9
08/05 10:00 16.2 29 4 -1.8 9 17 1020.8 0 9.8 18.8 22.5 58.2 41.8 140.1
08/05 09:50 16.4 30 4.19 -1.2 4 6 1020.8 0 10.2 19.0 23.1 59.7 43.8 147.0
08/05 09:40 15.8 30 4.04 -1.7 11 13 1020.9 0 9.9 19.0 22.8 58.9 42.5 142.3
08/05 09:30 15.8 38 5.12 1.5 7 13 1020.9 0 12.1 20.4 26.4 68.5 54.4 184.3
08/05 09:20 15.3 38 4.96 1.1 7 9 1020.8 0 11.8 20.3 26.0 67.4 52.9 179.0
08/05 09:10 14.9 42 5.35 2.1 15 17 1020.8 0 12.6 21.0 27.5 71.4 57.6 195.6
08/05 09:00 14.3 45 5.53 2.5 9 11 1020.8 0 13.0 21.3 28.3 73.6 60.2 204.4
08/05 08:50 13.6 53 6.24 4.2 11 13 1021 0 14.6 22.6 31.1 81.2 69.2 236.1
08/05 08:40 13.2 53 6.09 3.8 11 13 1021 0 14.3 22.4 30.7 80.1 67.7 230.9
08/05 08:30 12.4 63 6.88 5.6 9 13 1021 0 16.0 23.8 34.0 88.9 78.3 267.8
08/05 08:20 11.6 68 7.07 5.9 9 13 1020.9 0 16.4 24.3 35.1 91.7 81.5 279.0
08/05 08:10 10.6 72 7.03 5.8 15 15 1021 0 16.4 24.6 35.4 92.5 82.1 280.8
08/05 08:00 10.2 74 7.04 5.8 11 13 1021 0 16.4 24.7 35.6 93.1 82.6 282.6
08/05 07:50 9.8 76 7.05 5.8 11 13 1020.9 0 16.4 24.8 35.8 93.6 83.2 284.5
08/05 07:40 9.4 75 6.79 5.2 13 13 1020.9 0 15.9 24.5 34.9 91.3 80.2 273.9
08/05 07:30 8.8 78 6.79 5.2 11 15 1020.8 0 15.9 24.7 35.2 92.0 80.8 276.0
08/05 07:20 7.5 88 7.05 5.6 13 13 1020.9 0 16.5 25.5 36.9 96.4 85.7 293.0
08/05 07:10 7 85 6.59 4.7 9 9 1020.8 0 15.6 24.8 35.2 92.0 80.0 272.9
08/05 07:00 6.8 83 6.35 4.1 7 9 1020.6 0 15.1 24.5 34.3 89.6 76.9 262.2
08/05 06:50 5.5 85 5.97 3.2 7 9 1020.6 0 14.3 24.2 33.3 86.9 73.1 248.6
08/05 06:40 5.3 82 5.69 2.5 6 7 1020.3 0 13.7 23.8 32.2 84.1 69.5 236.0
08/05 06:30 5.8 78 5.59 2.3 4 7 1020.5 0 13.5 23.5 31.6 82.5 67.8 229.9
08/05 06:20 6.1 74 5.41 1.8 0 0 1020.3 0 13.1 23.1 30.8 80.2 65.1 220.8
08/05 06:10 6.7 68 5.17 1.2 0 0 1020.3 0 12.5 22.6 29.6 77.1 61.6 208.3
08/05 06:00 7.1 69 5.38 1.8 4 6 1020.1 0 13.0 22.8 30.3 78.9 63.9 216.6
08/05 05:50 7.7 63 5.11 1.1 2 4 1020 0 12.4 22.3 29.0 75.5 60.0 203.0
08/05 05:40 9.2 52 4.64 -0.1 9 11 1019.8 0 11.3 21.2 26.8 69.5 53.2 179.1
08/05 05:30 9.7 49 4.52 -0.5 11 13 1019.6 0 11.1 20.9 26.2 67.9 51.4 173.0
08/05 05:20 10.5 44 4.27 -1.2 11 11 1019.5 0 10.5 20.4 25.0 64.8 47.9 160.9
08/05 05:10 11.1 41 4.13 -1.6 7 9 1019.4 0 10.2 20.0 24.4 63.1 46.0 154.1
08/05 05:00 11 41 4.1 -1.7 11 15 1019.4 0 10.1 20.0 24.3 62.9 45.7 153.1
08/05 04:50 10.2 50 4.76 0.3 13 15 1019.3 0 11.6 21.1 26.9 69.8 53.9 181.9
08/05 04:40 10.5 47 4.56 -0.3 11 13 1019.2 0 11.1 20.8 26.0 67.6 51.3 172.9
08/05 04:30 10.4 49 4.72 0.2 13 17 1019 0 11.5 21.0 26.6 69.2 53.3 179.7
08/05 04:20 8.9 60 5.26 1.6 15 17 1019 0 12.7 22.2 29.1 75.8 60.9 206.4
08/05 04:10 6.7 77 5.85 3 11 13 1019 0 14.0 23.6 32.3 84.2 70.3 239.0
08/05 04:00 6.6 77 5.82 2.9 7 13 1018.9 0 13.9 23.6 32.2 83.9 70.0 237.9
08/05 03:50 6.4 77 5.74 2.7 6 7 1019 0 13.8 23.5 31.9 83.3 69.1 234.8
08/05 03:40 6.6 77 5.82 2.9 0 0 1018.9 0 13.9 23.6 32.2 83.9 70.0 237.9
08/05 03:30 7.1 76 5.93 3.2 4 7 1018.8 0 14.2 23.7 32.4 84.6 71.0 241.4
08/05 03:20 7 78 6.05 3.4 6 6 1018.9 0 14.4 23.9 32.9 85.9 72.6 247.2
08/05 03:10 7.4 76 6.05 3.5 0 0 1018.8 0 14.4 23.8 32.8 85.5 72.3 246.0
08/05 03:00 8.3 65 5.48 2.1 2 6 1018.8 0 13.1 22.6 30.2 78.6 64.1 217.6
08/05 02:50 7.8 71 5.8 2.9 6 6 1018.8 0 13.8 23.3 31.6 82.4 68.6 233.3
08/05 02:40 8.4 66 5.6 2.4 4 6 1018.7 0 13.4 22.8 30.6 79.8 65.6 222.6
08/05 02:30 9.4 59 5.34 1.8 7 13 1018.7 0 12.8 22.2 29.3 76.1 61.5 208.5
08/05 02:20 9.7 58 5.35 1.8 13 13 1018.6 0 12.8 22.1 29.2 75.9 61.4 208.1
08/05 02:10 10.7 53 5.21 1.5 11 13 1018.6 0 12.5 21.6 28.3 73.6 58.9 199.6
08/05 02:00 10.7 53 5.21 1.5 11 15 1018.6 0 12.5 21.6 28.3 73.6 58.9 199.6
08/05 01:50 10.7 49 4.81 0.4 7 9 1018.6 0 11.6 21.1 26.9 69.7 54.1 182.7
08/05 01:40 11.2 49 4.97 0.9 11 13 1018.5 0 12.0 21.2 27.3 70.8 55.7 188.3
08/05 01:30 11.6 47 4.89 0.7 11 15 1018.5 0 11.8 21.0 26.8 69.7 54.5 184.0
08/05 01:20 12.3 44 4.78 0.4 11 13 1018.5 0 11.5 20.7 26.2 68.1 52.7 177.9
08/05 01:10 12.7 46 5.12 1.4 17 17 1018.3 0 12.2 21.0 27.3 70.9 56.4 191.0
08/05 01:00 12.9 47 5.3 1.9 13 17 1018.6 0 12.6 21.3 27.9 72.5 58.4 198.0
08/05 00:50 13.2 46 5.28 1.8 13 17 1018.5 0 12.6 21.2 27.7 72.0 57.9 196.4
08/05 00:40 13.9 44 5.28 1.9 17 19 1018.5 0 12.5 21.0 27.5 71.4 57.4 194.7
08/05 00:20 13.5 52 6.08 3.8 13 15 1018.4 0 14.2 22.3 30.5 79.5 67.2 229.1
08/05 00:10 14 51 6.15 4 13 15 1018.4 0 14.4 22.2 30.5 79.6 67.6 230.6
08/05 00:00 14.3 52 6.39 4.6 17 22 1018.3 0 14.9 22.5 31.3 81.7 70.3 239.9
07/05 23:50 14.8 51 6.46 4.8 17 19 1018.4 0 15.0 22.5 31.4 81.9 70.7 241.4
07/05 23:40 14.3 54 6.63 5.1 13 15 1018.4 0 15.4 22.9 32.2 84.1 73.2 250.1
07/05 23:30 14.8 52 6.59 5.1 13 19 1018.3 0 15.3 22.7 31.8 83.1 72.2 246.9
07/05 23:20 14.9 53 6.75 5.4 19 22 1018.1 0 15.6 22.9 32.4 84.6 74.1 253.3
07/05 23:10 14.1 61 7.4 6.7 13 15 1017.9 0 17.0 24.1 35.2 92.0 82.9 284.2
07/05 23:00 14.2 60 7.33 6.6 13 19 1018.1 0 16.9 24.0 34.8 91.2 81.9 280.8
07/05 22:50 14.4 60 7.42 6.7 13 17 1017.8 0 17.0 24.0 35.1 91.8 82.8 284.0
07/05 22:40 15.2 55 7.14 6.2 19 20 1017.8 0 16.4 23.4 33.7 88.1 78.5 269.0
07/05 22:30 16.7 49 6.96 5.9 19 24 1017.5 0 16.0 22.7 32.4 84.7 74.9 256.4
07/05 22:20 16.8 48 6.86 5.7 17 17 1017.4 0 15.8 22.6 32.0 83.6 73.6 251.9
07/05 22:10 16.7 48 6.82 5.6 17 19 1017.3 0 15.7 22.5 31.9 83.3 73.2 250.5
07/05 22:00 17.1 47 6.84 5.7 19 26 1017.2 0 15.7 22.5 31.8 83.1 73.1 250.1
07/05 21:50 17.3 46 6.78 5.6 13 17 1017.2 0 15.6 22.3 31.5 82.3 72.2 247.0
07/05 21:40 17.6 44 6.6 5.2 20 24 1017.2 0 15.2 22.0 30.8 80.3 69.8 238.7
07/05 21:30 17.8 43 6.53 5.1 22 32 1017.1 0 15.0 21.8 30.4 79.4 68.8 235.2
07/05 21:20 18 42 6.45 4.9 24 30 1016.8 0 14.9 21.7 30.1 78.5 67.7 231.3
07/05 21:10 18.4 40 6.29 4.6 32 35 1016.9 0 14.5 21.3 29.4 76.6 65.5 223.8
07/05 21:00 18.4 41 6.45 4.9 24 35 1016.6 0 14.8 21.6 29.9 78.1 67.3 230.1
07/05 20:50 18.8 38 6.12 4.2 24 26 1016.5 0 14.1 21.0 28.6 74.7 63.3 215.9
07/05 20:40 18.4 39 6.13 4.2 20 24 1016.1 0 14.2 21.1 28.8 75.1 63.7 217.2
07/05 20:30 18.4 39 6.13 4.2 17 24 1016 0 14.2 21.1 28.8 75.1 63.7 217.2
07/05 20:20 18.7 39 6.24 4.5 19 19 1015.8 0 14.4 21.2 29.1 75.8 64.7 220.8
07/05 20:10 19.3 36 5.97 3.9 22 26 1015.5 0 13.8 20.7 27.9 72.8 61.1 208.5
07/05 20:00 19.2 37 6.1 4.2 24 32 1015.4 0 14.1 20.9 28.4 74.0 62.7 213.8
07/05 19:50 18.3 41 6.41 4.8 24 28 1015.1 0 14.8 21.5 29.8 77.7 66.9 228.5

Last Refresh: 08-May-2026 12:08:00

Bureau of Meteorology